createdAt,value
2023-03-17T00:01:57.485Z,70.76
2023-03-17T00:04:27.401Z,71.06
2023-03-17T00:06:56.753Z,71.01
2023-03-17T00:09:25.432Z,71.20
2023-03-17T00:11:53.549Z,71.36
2023-03-17T00:14:21.903Z,71.51
2023-03-17T00:16:52.018Z,71.75
2023-03-17T00:19:31.291Z,71.97
2023-03-17T00:22:00.972Z,72.11
2023-03-17T00:24:30.073Z,72.05
2023-03-17T00:26:58.188Z,72.07
2023-03-17T00:29:27.066Z,71.93
2023-03-17T00:31:57.827Z,72.22
2023-03-17T00:34:27.254Z,72.32
2023-03-17T00:36:56.157Z,72.22
2023-03-17T00:39:25.596Z,71.86
2023-03-17T00:41:55.729Z,71.78
2023-03-17T00:44:25.818Z,71.80
2023-03-17T00:46:55.133Z,71.86
2023-03-17T00:49:25.769Z,71.92
2023-03-17T00:51:54.314Z,71.92
2023-03-17T00:54:23.365Z,71.89
2023-03-17T00:56:52.816Z,72.00
2023-03-17T00:59:24.284Z,71.74
2023-03-17T01:01:52.528Z,71.89
2023-03-17T01:04:22.816Z,71.66
2023-03-17T01:06:52.341Z,71.64
2023-03-17T01:09:25.999Z,71.53
2023-03-17T01:11:55.820Z,71.45
2023-03-17T01:14:24.948Z,71.27
2023-03-17T01:16:53.220Z,71.20
2023-03-17T01:19:22.128Z,71.45
2023-03-17T01:21:50.372Z,71.24
2023-03-17T01:24:18.667Z,71.04
2023-03-17T01:26:47.199Z,71.12
2023-03-17T01:29:16.608Z,70.96
2023-03-17T01:31:46.248Z,70.93
2023-03-17T01:34:14.445Z,70.98
2023-03-17T01:36:43.776Z,71.07
2023-03-17T01:39:12.924Z,71.10
2023-03-17T01:41:41.204Z,70.82
2023-03-17T01:44:19.394Z,70.82
2023-03-17T01:46:47.714Z,71.06
2023-03-17T01:49:22.904Z,71.19
2023-03-17T01:51:58.783Z,71.36
2023-03-17T01:54:42.090Z,71.46
2023-03-17T01:57:20.153Z,71.22
2023-03-17T01:59:55.633Z,71.29
2023-03-17T02:02:29.168Z,71.23
2023-03-17T02:04:58.222Z,71.31
2023-03-17T02:07:27.592Z,71.41
2023-03-17T02:09:57.191Z,71.85
2023-03-17T02:12:29.032Z,72.15
2023-03-17T02:14:58.516Z,72.44
2023-03-17T02:17:27.773Z,72.59
2023-03-17T02:19:56.486Z,73.08
2023-03-17T02:22:24.664Z,73.64
2023-03-17T02:24:59.539Z,73.83
2023-03-17T02:27:34.960Z,73.59
2023-03-17T02:30:06.629Z,73.67
2023-03-17T02:32:37.574Z,73.54
2023-03-17T02:35:07.530Z,73.87
2023-03-17T02:37:38.869Z,73.84
2023-03-17T02:40:08.037Z,74.04
2023-03-17T02:42:36.676Z,74.16
2023-03-17T02:45:06.490Z,74.39
2023-03-17T02:47:36.283Z,74.63
2023-03-17T02:50:06.129Z,75.19
2023-03-17T02:52:34.342Z,75.01
2023-03-17T02:55:02.454Z,75.02
2023-03-17T02:57:30.945Z,76.48
2023-03-17T02:59:59.162Z,75.60
2023-03-17T03:02:27.424Z,75.11
2023-03-17T03:04:56.537Z,75.53
2023-03-17T03:07:24.568Z,75.67
2023-03-17T03:09:52.630Z,75.58
2023-03-17T03:12:20.825Z,75.27
2023-03-17T03:14:49.082Z,75.37
2023-03-17T03:17:17.793Z,75.71
2023-03-17T03:19:45.972Z,76.06
2023-03-17T03:22:14.102Z,75.90
2023-03-17T03:24:42.623Z,76.10
2023-03-17T03:27:10.925Z,75.92
2023-03-17T03:29:39.238Z,76.05
2023-03-17T03:32:09.308Z,75.87
2023-03-17T03:34:37.357Z,75.84
2023-03-17T03:37:05.529Z,75.98
2023-03-17T03:39:33.683Z,75.82
2023-03-17T03:42:01.772Z,76.23
2023-03-17T03:44:29.975Z,76.79
2023-03-17T03:46:58.135Z,77.03
2023-03-17T03:49:26.495Z,77.41
2023-03-17T03:51:54.578Z,77.28
2023-03-17T03:54:22.755Z,77.07
2023-03-17T03:56:50.864Z,76.97
2023-03-17T03:59:19.004Z,77.11
2023-03-17T04:01:47.062Z,77.01
2023-03-17T04:04:15.036Z,77.23
2023-03-17T04:06:43.069Z,77.06
2023-03-17T04:09:11.258Z,77.26
2023-03-17T04:11:39.448Z,77.68
2023-03-17T04:14:07.629Z,77.99
2023-03-17T04:16:36.187Z,78.30
2023-03-17T04:19:04.413Z,79.16
2023-03-17T04:21:32.562Z,79.51
2023-03-17T04:24:00.580Z,80.41
2023-03-17T04:26:32.541Z,82.50
2023-03-17T04:29:02.521Z,82.68
2023-03-17T04:31:30.893Z,83.08
2023-03-17T04:33:59.232Z,83.05
2023-03-17T04:36:28.114Z,83.68
2023-03-17T04:38:56.154Z,83.72
2023-03-17T04:41:24.429Z,84.15
2023-03-17T04:43:52.516Z,85.49
2023-03-17T04:46:20.689Z,86.10
2023-03-17T04:48:48.899Z,86.62
2023-03-17T04:51:17.202Z,88.95
2023-03-17T04:53:45.421Z,89.46
2023-03-17T04:56:13.487Z,90.42
2023-03-17T04:58:41.761Z,92.06
2023-03-17T05:01:10.085Z,92.05
2023-03-17T05:03:38.296Z,91.70
2023-03-17T05:06:07.235Z,92.89
2023-03-17T05:08:35.512Z,94.03
2023-03-17T05:11:03.802Z,93.26
2023-03-17T05:13:31.995Z,95.16
2023-03-17T05:16:09.792Z,96.91
2023-03-17T05:18:43.761Z,96.77
2023-03-17T05:21:12.038Z,96.31
2023-03-17T05:23:41.319Z,96.71
2023-03-17T05:26:10.342Z,97.21
2023-03-17T05:28:38.729Z,98.03
2023-03-17T05:31:09.464Z,99.82
2023-03-17T05:33:39.123Z,99.94
2023-03-17T05:36:08.230Z,100.00
2023-03-17T05:38:36.707Z,100.00
2023-03-17T05:41:05.714Z,100.00
2023-03-17T05:43:34.214Z,100.00
2023-03-17T05:46:04.085Z,100.00
2023-03-17T05:48:33.518Z,100.00
2023-03-17T05:51:02.036Z,100.00
2023-03-17T05:53:31.337Z,100.00
2023-03-17T05:55:59.806Z,99.80
2023-03-17T05:58:32.773Z,99.23
2023-03-17T06:01:12.452Z,99.08
2023-03-17T06:04:24.044Z,99.12
2023-03-17T06:06:52.629Z,98.46
2023-03-17T06:09:20.836Z,97.68
2023-03-17T06:11:49.022Z,97.32
2023-03-17T06:14:19.675Z,96.73
2023-03-17T06:16:50.423Z,95.75
2023-03-17T06:19:18.911Z,94.90
2023-03-17T06:21:47.499Z,94.00
2023-03-17T06:24:16.461Z,93.11
2023-03-17T06:26:46.975Z,92.52
2023-03-17T06:29:15.804Z,91.49
2023-03-17T06:31:50.346Z,90.05
2023-03-17T06:34:19.916Z,89.11
2023-03-17T06:36:48.580Z,88.05
2023-03-17T06:39:18.397Z,85.79
2023-03-17T06:41:46.697Z,84.81
2023-03-17T06:44:15.329Z,83.78
2023-03-17T06:46:44.154Z,82.73
2023-03-17T06:49:13.674Z,82.09
2023-03-17T06:51:41.799Z,81.86
2023-03-17T06:54:10.192Z,81.46
2023-03-17T06:56:38.339Z,80.41
2023-03-17T06:59:06.536Z,79.49
2023-03-17T07:01:34.791Z,79.55
2023-03-17T07:04:02.978Z,78.46
2023-03-17T07:06:31.151Z,77.28
2023-03-17T07:09:01.963Z,75.21
2023-03-17T07:11:30.989Z,75.29
2023-03-17T07:13:59.664Z,73.56
2023-03-17T07:16:28.057Z,72.04
2023-03-17T07:18:56.512Z,71.50
2023-03-17T07:21:24.628Z,67.62
2023-03-17T07:23:52.773Z,64.82
2023-03-17T07:26:27.487Z,62.38
2023-03-17T07:28:57.336Z,57.83
2023-03-17T07:31:26.878Z,55.60
2023-03-17T07:33:57.632Z,54.47
2023-03-17T07:36:26.356Z,53.79
2023-03-17T07:39:00.317Z,52.94
2023-03-17T07:41:32.645Z,52.71
2023-03-17T07:45:57.423Z,51.15
2023-03-17T07:47:17.409Z,49.60
2023-03-17T07:49:50.074Z,49.39
2023-03-17T07:53:12.641Z,48.14
2023-03-17T07:55:25.740Z,48.06
2023-03-17T07:57:56.061Z,48.79
2023-03-17T08:00:37.486Z,48.81
2023-03-17T08:03:20.933Z,48.71
2023-03-17T08:05:56.250Z,47.51
2023-03-17T08:08:40.504Z,47.07
2023-03-17T08:11:14.299Z,47.70
2023-03-17T08:13:45.033Z,47.47
2023-03-17T08:16:15.186Z,48.16
2023-03-17T08:21:44.593Z,46.10
2023-03-17T08:24:23.075Z,46.11
2023-03-17T08:26:51.316Z,46.31
2023-03-17T08:29:31.338Z,46.40
2023-03-17T08:31:59.778Z,46.19
2023-03-17T08:34:28.193Z,46.72
2023-03-17T08:40:19.959Z,44.82
2023-03-17T08:42:49.809Z,44.84
2023-03-17T08:43:47.167Z,46.50
2023-03-17T08:45:28.156Z,45.53
2023-03-17T08:47:56.694Z,45.93
2023-03-17T08:50:29.701Z,46.93
2023-03-17T08:53:02.883Z,46.35
2023-03-17T08:55:49.705Z,46.26
2023-03-17T08:58:19.912Z,46.05
2023-03-17T09:00:48.988Z,45.54
2023-03-17T09:03:17.373Z,45.77
2023-03-17T09:05:47.797Z,46.21
2023-03-17T09:08:18.894Z,46.39
2023-03-17T09:10:48.249Z,45.31
2023-03-17T09:13:16.561Z,44.93
2023-03-17T09:15:54.880Z,45.06
2023-03-17T09:18:23.118Z,44.78
2023-03-17T09:20:56.633Z,45.28
2023-03-17T09:23:37.558Z,44.30
2023-03-17T09:26:05.838Z,43.40
2023-03-17T09:28:34.653Z,43.41
2023-03-17T09:31:11.517Z,43.49
2023-03-17T09:33:46.115Z,44.15
2023-03-17T09:36:35.958Z,43.01
2023-03-17T09:39:14.369Z,41.89
2023-03-17T09:42:21.985Z,41.46
2023-03-17T09:45:12.514Z,41.26
2023-03-17T09:47:55.642Z,41.37
2023-03-17T09:50:26.743Z,41.24
2023-03-17T09:52:57.639Z,41.98
2023-03-17T09:55:31.810Z,41.94
2023-03-17T09:58:01.171Z,41.33
2023-03-17T10:00:32.938Z,40.47
2023-03-17T10:03:02.066Z,40.52
2023-03-17T10:05:36.339Z,40.29
2023-03-17T10:08:22.817Z,41.07
2023-03-17T10:11:07.409Z,41.16
2023-03-17T10:13:44.598Z,40.97
2023-03-17T10:16:18.785Z,40.47
2023-03-17T10:18:52.084Z,38.96
2023-03-17T10:21:27.265Z,39.84
2023-03-17T10:23:57.883Z,40.58
2023-03-17T10:26:31.410Z,40.73
2023-03-17T10:29:04.275Z,40.75
2023-03-17T10:31:38.228Z,40.16
2023-03-17T10:34:30.081Z,38.34
2023-03-17T10:37:04.345Z,37.34
2023-03-17T10:40:04.506Z,37.90
2023-03-17T10:42:35.877Z,38.53
2023-03-17T10:45:17.910Z,38.14
2023-03-17T10:47:50.675Z,38.23
2023-03-17T10:50:25.066Z,38.59
2023-03-17T10:53:05.170Z,37.87
2023-03-17T10:55:52.329Z,37.51
2023-03-17T10:58:49.391Z,37.76
2023-03-17T11:01:23.843Z,38.27
2023-03-17T11:03:54.689Z,38.45
2023-03-17T11:06:55.062Z,37.98
2023-03-17T11:09:23.727Z,37.74
2023-03-17T11:12:06.700Z,37.76
2023-03-17T11:14:35.677Z,37.89
2023-03-17T11:17:17.768Z,37.27
2023-03-17T11:20:10.312Z,37.85
2023-03-17T11:22:50.390Z,39.47
2023-03-17T11:25:23.469Z,40.28
2023-03-17T11:28:17.056Z,40.02
2023-03-17T11:31:01.378Z,40.27
2023-03-17T11:33:37.610Z,40.76
2023-03-17T11:36:15.794Z,40.59
2023-03-17T11:39:13.377Z,40.58
2023-03-17T11:42:12.373Z,40.75
2023-03-17T11:45:39.325Z,40.68
2023-03-17T11:52:04.131Z,41.40
2023-03-17T11:55:01.975Z,41.66
2023-03-17T11:57:43.702Z,41.98
2023-03-17T12:00:46.893Z,41.38
2023-03-17T12:03:23.314Z,41.47
2023-03-17T12:05:56.304Z,40.80
2023-03-17T12:08:30.019Z,40.66
2023-03-17T12:11:02.216Z,41.04
2023-03-17T12:13:46.109Z,41.23
2023-03-17T12:16:49.356Z,40.63
2023-03-17T12:19:26.239Z,40.63
2023-03-17T12:22:01.523Z,40.75
2023-03-17T12:24:45.899Z,40.71
2023-03-17T12:27:20.229Z,40.58
2023-03-17T12:30:29.348Z,40.76
2023-03-17T12:33:29.349Z,40.56
2023-03-17T12:36:02.680Z,40.93
2023-03-17T12:38:53.822Z,40.92
2023-03-17T12:41:30.395Z,40.80
2023-03-17T12:44:19.172Z,40.71
2023-03-17T12:47:06.623Z,39.96
2023-03-17T12:49:52.561Z,39.95
2023-03-17T12:56:10.697Z,40.20
2023-03-17T12:56:40.429Z,40.08
2023-03-17T12:59:51.766Z,40.56
2023-03-17T13:02:27.776Z,40.20
2023-03-17T13:05:14.326Z,40.12
2023-03-17T13:08:11.604Z,39.94
2023-03-17T13:10:59.846Z,39.90
2023-03-17T13:13:55.944Z,39.75
2023-03-17T13:16:52.509Z,40.01
2023-03-17T13:19:25.560Z,40.09
2023-03-17T13:22:10.212Z,39.87
2023-03-17T13:24:51.987Z,39.86
2023-03-17T13:27:31.067Z,40.00
2023-03-17T13:30:18.882Z,39.85
2023-03-17T13:33:20.023Z,39.46
2023-03-17T13:36:20.676Z,39.38
2023-03-17T13:39:24.924Z,39.01
2023-03-17T13:42:23.191Z,39.04
2023-03-17T13:45:19.912Z,39.13
2023-03-17T13:47:51.129Z,38.93
2023-03-17T13:50:30.895Z,38.64
2023-03-17T13:53:19.781Z,38.73
2023-03-17T13:56:52.019Z,39.00
2023-03-17T13:59:25.989Z,38.91
2023-03-17T14:02:27.189Z,39.26
2023-03-17T14:05:06.536Z,38.83
2023-03-17T14:07:59.737Z,38.73
2023-03-17T14:10:56.952Z,38.76
2023-03-17T14:13:43.438Z,38.67
2023-03-17T14:16:25.986Z,38.45
2023-03-17T14:19:00.894Z,38.61
2023-03-17T14:21:33.787Z,38.73
2023-03-17T14:24:17.352Z,38.56
2023-03-17T14:26:48.301Z,38.77
2023-03-17T14:29:28.810Z,38.39
2023-03-17T14:32:06.255Z,38.05
2023-03-17T14:34:34.613Z,38.35
2023-03-17T14:37:04.969Z,38.00
2023-03-17T14:39:35.153Z,37.67
2023-03-17T14:42:06.516Z,37.89
2023-03-17T14:44:42.532Z,38.23
2023-03-17T14:47:20.491Z,37.92
2023-03-17T14:49:50.797Z,37.90
2023-03-17T14:52:33.049Z,37.92
2023-03-17T14:55:01.933Z,37.74
2023-03-17T14:57:36.466Z,37.48
2023-03-17T15:00:32.174Z,37.55
2023-03-17T15:03:03.770Z,37.65
2023-03-17T15:05:41.363Z,37.58
2023-03-17T15:08:48.177Z,37.04
2023-03-17T15:11:28.852Z,37.45
2023-03-17T15:14:09.627Z,37.55
2023-03-17T15:17:51.485Z,37.51
2023-03-17T15:20:31.324Z,37.25
2023-03-17T15:23:27.660Z,37.03
2023-03-17T15:26:10.642Z,37.52
2023-03-17T15:28:44.139Z,37.38
2023-03-17T15:31:13.845Z,37.25
2023-03-17T15:33:43.364Z,37.96
2023-03-17T15:36:31.893Z,37.81
2023-03-17T15:39:03.728Z,38.06
2023-03-17T15:41:34.466Z,37.94
2023-03-17T15:44:05.246Z,37.42
2023-03-17T15:46:43.850Z,37.30
2023-03-17T15:49:14.085Z,37.50
2023-03-17T15:51:43.033Z,37.83
2023-03-17T15:54:14.877Z,37.66
2023-03-17T15:56:43.662Z,37.71
2023-03-17T15:59:12.264Z,37.70
2023-03-17T16:01:41.240Z,37.68
2023-03-17T16:04:10.817Z,38.04
2023-03-17T16:06:39.295Z,37.98
2023-03-17T16:09:16.211Z,38.07
2023-03-17T16:11:44.557Z,38.48
2023-03-17T16:14:12.707Z,38.82
2023-03-17T16:16:45.854Z,39.21
2023-03-17T16:19:20.400Z,39.46
2023-03-17T16:21:49.174Z,39.64
2023-03-17T16:24:23.046Z,39.85
2023-03-17T16:26:52.262Z,39.64
2023-03-17T16:29:21.394Z,40.11
2023-03-17T16:31:51.124Z,40.31
2023-03-17T16:34:23.882Z,40.28
2023-03-17T16:36:52.128Z,40.41
2023-03-17T16:39:23.946Z,40.79
2023-03-17T16:41:53.689Z,40.85
2023-03-17T16:44:22.283Z,41.01
2023-03-17T16:46:50.639Z,41.33
2023-03-17T16:49:20.711Z,42.15
2023-03-17T16:51:50.521Z,42.55
2023-03-17T16:54:21.221Z,42.87
2023-03-17T16:56:49.359Z,43.03
2023-03-17T16:59:21.245Z,43.66
2023-03-17T17:01:49.759Z,43.66
2023-03-17T17:04:18.112Z,44.43
2023-03-17T17:06:46.394Z,44.81
2023-03-17T17:09:14.612Z,45.13
2023-03-17T17:11:42.725Z,45.60
2023-03-17T17:14:11.069Z,46.13
2023-03-17T17:16:40.708Z,47.20
2023-03-17T17:19:17.793Z,47.98
2023-03-17T17:21:45.877Z,48.81
2023-03-17T17:24:14.559Z,49.91
2023-03-17T17:26:42.916Z,50.35
2023-03-17T17:29:12.245Z,50.74
2023-03-17T17:31:41.374Z,51.62
2023-03-17T17:34:09.492Z,52.40
2023-03-17T17:36:37.872Z,53.07
2023-03-17T17:39:06.907Z,53.03
2023-03-17T17:41:35.138Z,53.41
2023-03-17T17:44:03.453Z,53.86
2023-03-17T17:46:33.035Z,54.09
2023-03-17T17:49:01.430Z,54.44
2023-03-17T17:51:29.912Z,54.78
2023-03-17T17:53:58.482Z,54.84
2023-03-17T17:56:26.986Z,54.87
2023-03-17T17:58:55.567Z,55.05
2023-03-17T18:01:23.899Z,55.41
2023-03-17T18:04:07.793Z,55.73
2023-03-17T18:06:36.223Z,55.64
2023-03-17T18:09:05.564Z,55.72
2023-03-17T18:11:38.711Z,55.66
2023-03-17T18:14:11.744Z,55.42
2023-03-17T18:16:44.830Z,55.09
2023-03-17T18:19:15.314Z,55.15
2023-03-17T18:21:44.590Z,55.07
2023-03-17T18:24:13.712Z,55.04
2023-03-17T18:26:42.014Z,55.18
2023-03-17T18:29:11.505Z,55.22
2023-03-17T18:31:39.976Z,55.10
2023-03-17T18:34:31.826Z,55.29
2023-03-17T18:37:01.991Z,55.12
2023-03-17T18:39:30.399Z,55.18
2023-03-17T18:41:58.688Z,54.99
2023-03-17T18:44:27.148Z,54.71
2023-03-17T18:46:55.844Z,54.66
2023-03-17T18:49:25.463Z,54.75
2023-03-17T18:51:55.133Z,54.37
2023-03-17T18:54:24.652Z,54.17
2023-03-17T18:56:53.033Z,54.48
2023-03-17T18:59:21.424Z,54.53
2023-03-17T19:01:49.653Z,54.52
2023-03-17T19:04:17.858Z,54.99
2023-03-17T19:06:46.851Z,55.05
2023-03-17T19:09:15.274Z,55.34
2023-03-17T19:11:43.716Z,55.43
2023-03-17T19:14:25.210Z,55.87
2023-03-17T19:16:57.568Z,55.95
2023-03-17T19:19:29.138Z,56.72
2023-03-17T19:21:57.814Z,57.15
2023-03-17T19:24:37.446Z,57.41
2023-03-17T19:27:05.735Z,58.28
2023-03-17T19:29:39.621Z,58.88
2023-03-17T19:32:08.236Z,59.23
2023-03-17T19:34:36.613Z,59.40
2023-03-17T19:37:04.828Z,59.80
2023-03-17T19:39:34.096Z,59.84
2023-03-17T19:42:02.811Z,60.92
2023-03-17T19:44:35.149Z,62.11
2023-03-17T19:47:10.120Z,62.78
2023-03-17T19:49:39.094Z,63.17
2023-03-17T19:52:11.141Z,63.97
2023-03-17T19:54:44.845Z,64.78
2023-03-17T20:00:16.022Z,64.96
2023-03-17T20:02:44.973Z,65.87
2023-03-17T20:10:00.268Z,67.17
2023-03-17T20:12:36.044Z,68.11
2023-03-17T20:15:17.963Z,68.41
2023-03-17T20:17:46.706Z,69.55
2023-03-17T20:20:16.568Z,69.21
2023-03-17T20:22:45.324Z,69.55
2023-03-17T20:25:13.925Z,69.64
2023-03-17T20:27:42.621Z,69.22
2023-03-17T20:30:12.460Z,69.45
2023-03-17T20:32:40.931Z,69.53
2023-03-17T20:35:12.827Z,69.60
2023-03-17T20:37:44.180Z,69.46
2023-03-17T20:40:15.277Z,69.84
2023-03-17T20:42:59.161Z,70.10
2023-03-17T20:45:38.241Z,70.90
2023-03-17T20:48:10.558Z,71.00
2023-03-17T20:50:44.383Z,71.44
2023-03-17T20:53:46.434Z,71.10
2023-03-17T20:56:15.738Z,71.13
2023-03-17T20:58:50.043Z,70.84
2023-03-17T21:01:29.753Z,70.88
2023-03-17T21:04:21.480Z,70.21
2023-03-17T21:07:00.547Z,69.95
2023-03-17T21:10:06.242Z,69.29
2023-03-17T21:12:48.340Z,69.43
2023-03-17T21:15:18.556Z,69.46
2023-03-17T21:17:55.555Z,69.35
2023-03-17T21:20:26.644Z,69.29
2023-03-17T21:22:54.724Z,69.30
2023-03-17T21:25:23.455Z,69.87
2023-03-17T21:27:53.875Z,70.12
2023-03-17T21:30:22.527Z,70.20
2023-03-17T21:32:51.264Z,70.42
2023-03-17T21:35:19.420Z,70.45
2023-03-17T21:37:47.662Z,70.38
2023-03-17T21:44:46.175Z,70.60
2023-03-17T21:47:14.960Z,70.70
2023-03-17T21:49:43.152Z,70.59
2023-03-17T21:52:11.404Z,70.67
2023-03-17T21:54:42.097Z,70.83
2023-03-17T21:57:11.969Z,70.92
2023-03-17T21:59:40.955Z,71.33
2023-03-17T22:02:11.268Z,70.89
2023-03-17T22:04:41.743Z,71.20
2023-03-17T22:07:13.379Z,71.61
2023-03-17T22:09:42.008Z,71.67
2023-03-17T22:12:11.121Z,71.54
2023-03-17T22:14:39.219Z,71.28
2023-03-17T22:17:08.574Z,71.33
2023-03-17T22:19:37.321Z,71.50
2023-03-17T22:22:05.866Z,71.82
2023-03-17T22:24:34.053Z,72.10
2023-03-17T22:27:02.117Z,72.16
2023-03-17T22:29:31.545Z,72.46
2023-03-17T22:31:59.947Z,72.75
2023-03-17T22:34:28.286Z,72.72
2023-03-17T22:36:58.180Z,72.51
2023-03-17T22:39:28.836Z,72.47
2023-03-17T22:41:57.311Z,73.30
2023-03-17T22:44:25.709Z,73.62
2023-03-17T22:46:53.909Z,73.65
2023-03-17T22:49:22.339Z,73.95
2023-03-17T22:51:50.523Z,73.63
2023-03-17T22:54:18.942Z,73.65
2023-03-17T22:56:50.867Z,73.95
2023-03-17T22:59:22.191Z,73.97
2023-03-17T23:01:52.748Z,74.02
2023-03-17T23:04:20.990Z,74.19
2023-03-17T23:06:49.203Z,74.20
2023-03-17T23:09:17.262Z,74.37
2023-03-17T23:11:45.710Z,74.73
2023-03-17T23:14:13.891Z,74.58
2023-03-17T23:16:49.405Z,74.56
2023-03-17T23:19:17.763Z,74.53
2023-03-17T23:21:46.390Z,74.82
2023-03-17T23:24:17.496Z,74.97
2023-03-17T23:26:48.916Z,75.10
2023-03-17T23:29:19.123Z,75.04
2023-03-17T23:31:47.734Z,74.89
2023-03-17T23:34:16.011Z,74.80
2023-03-17T23:36:44.092Z,74.65
2023-03-17T23:39:12.321Z,74.55
2023-03-17T23:41:40.388Z,74.56
2023-03-17T23:44:09.608Z,74.99
2023-03-17T23:46:38.825Z,74.95
2023-03-17T23:49:12.241Z,75.12
2023-03-17T23:51:40.972Z,75.06
2023-03-17T23:54:18.481Z,75.14
2023-03-17T23:56:50.835Z,74.97
2023-03-17T23:59:18.888Z,75.27
